Terminal Aerodrome Forecast
Issued by NWS Jackson, MS

Home | Current Version | Previous Version | Text Only | Print | Product List | Glossary On
Versions: 1 2 3 4 5 6 7 8 9 10 11 12 13 14 15 16 17 18 19 20 21 22 23 24 25 26 27
000
FTUS44 KJAN 061356 AAA
TAFMEI
TAF AMD
KMEI 061356Z 0614/0712 19004KT P6SM SCT006 BKN027
     FM061500 22005KT P6SM SCT035
     FM061930 22007KT P6SM VCTS SCT050CB
     FM062300 19004KT P6SM FEW250
     FM070800 20003KT 4SM BR SCT250=

USA.gov is the U.S. government's official web portal to all federal, state and local government web resources and services.